Portada
METAR-TAF:

METAR-TAF

Aeropuertos :

Cazaux, Francia

latitud: 44-32N, longitud: 001-08W, altitud: 25 m

Observación

El informe se hizo hace 20 minutos, a las 19:30 UTC
Viento calma
Temperatura 12°C
Humedad 71%
Presión 1026 hPa
Visibilidad 10 km o más
sin nubes por debajo de 1500 m y sin presencia de cumulonimbus.

METAR: LFBC 281930Z AUTO 00000KT CAVOK 12/07 Q1026 TEMPO 2000 MIFG

Hora: 21:50 (19:50 UTC)

Pronóstico

El informe se hizo hace 5 horas y 50 minutos, a las 14:00 UTC
Pronóstico válido del 28 a las 15 UTC al 29 a las 15 UTC
Viento 8 kt del oeste-noroeste
Visibilidad 10 km o más
sin nubes por debajo de 1500 m y sin presencia de cumulonimbus.
Probabilidad 40% :
Temporalmente
del 28 a las 21 UTC al 29 a las 06 UTC
Visibilidad: 2000 m
Niebla baja

TAF: LFBC 281400Z 2815/2915 29008KT CAVOK PROB40 TEMPO 2821/2906 2000 MIFG

Observaciones y pronósticos meteorológicos de más de 4000 aeropuertos (mensajes METAR y TAF).

Los puntos amarillos y rojos representan las estaciones disponibles.

Ponga el ratón en el punto deseado para ver el nombre de la estación.

Haga clic para ver las observaciones y los pronósticos meteorológicos.

Para cambiar el mapa : haga clic en los botones verdes con una cruz de color negro para hacer un zoom, en el botón verde con un guión para alejar o en las flechas verdes para mapas adyacentes.


METAR-TAF: